createdAt,value
2019-04-11T00:00:45.858Z,5.50
2019-04-11T00:03:15.372Z,5.47
2019-04-11T00:05:45.308Z,5.46
2019-04-11T00:08:14.417Z,5.42
2019-04-11T00:10:43.492Z,5.39
2019-04-11T00:13:21.146Z,5.36
2019-04-11T00:15:44.483Z,5.34
2019-04-11T00:18:14.448Z,5.33
2019-04-11T00:20:44.373Z,5.31
2019-04-11T00:23:14.193Z,5.31
2019-04-11T00:25:44.103Z,5.28
2019-04-11T00:28:13.234Z,5.28
2019-04-11T00:30:42.285Z,5.24
2019-04-11T00:33:11.354Z,5.23
2019-04-11T00:35:40.433Z,5.21
2019-04-11T00:38:09.857Z,5.20
2019-04-11T00:40:39.555Z,5.19
2019-04-11T00:43:09.432Z,5.16
2019-04-11T00:45:38.572Z,5.13
2019-04-11T00:48:07.626Z,5.12
2019-04-11T00:50:37.235Z,5.09
2019-04-11T00:53:06.557Z,5.08
2019-04-11T00:55:36.203Z,5.08
2019-04-11T00:58:05.631Z,5.09
2019-04-11T01:00:35.528Z,5.08
2019-04-11T01:03:06.496Z,5.05
2019-04-11T01:05:35.818Z,5.04
2019-04-11T01:08:05.231Z,5.04
2019-04-11T01:10:34.673Z,5.02
2019-04-11T01:13:04.982Z,5.01
2019-04-11T01:15:34.664Z,5.00
2019-04-11T01:18:03.738Z,4.98
2019-04-11T01:20:32.787Z,4.97
2019-04-11T01:23:02.802Z,4.96
2019-04-11T01:25:32.671Z,4.94
2019-04-11T01:28:02.645Z,4.91
2019-04-11T01:30:38.915Z,4.90
2019-04-11T01:33:07.996Z,4.86
2019-04-11T01:35:37.392Z,4.84
2019-04-11T01:38:06.725Z,4.82
2019-04-11T01:40:36.044Z,4.80
2019-04-11T01:43:06.027Z,4.78
2019-04-11T01:45:35.824Z,4.76
2019-04-11T01:48:12.338Z,4.75
2019-04-11T01:50:41.388Z,4.72
2019-04-11T01:53:11.015Z,4.69
2019-04-11T01:55:40.829Z,4.67
2019-04-11T01:58:10.844Z,4.63
2019-04-11T02:00:53.238Z,4.62
2019-04-11T02:03:37.526Z,4.60
2019-04-11T02:06:07.605Z,4.56
2019-04-11T02:08:37.613Z,4.54
2019-04-11T02:11:08.152Z,4.53
2019-04-11T02:13:37.246Z,4.50
2019-04-11T02:16:06.375Z,4.47
2019-04-11T02:18:35.446Z,4.44
2019-04-11T02:21:05.240Z,4.41
2019-04-11T02:23:53.145Z,4.39
2019-04-11T02:26:33.652Z,4.35
2019-04-11T02:29:03.479Z,4.33
2019-04-11T02:31:32.766Z,4.30
2019-04-11T02:34:04.441Z,4.28
2019-04-11T02:36:34.147Z,4.26
2019-04-11T02:39:11.750Z,4.23
2019-04-11T02:41:38.043Z,4.21
2019-04-11T02:44:27.234Z,4.19
2019-04-11T02:46:50.151Z,4.20
2019-04-11T02:49:10.242Z,4.18
2019-04-11T02:51:40.199Z,4.17
2019-04-11T02:54:09.410Z,4.17
2019-04-11T02:56:40.485Z,4.14
2019-04-11T02:59:11.217Z,4.12
2019-04-11T03:01:42.020Z,4.10
2019-04-11T03:04:12.755Z,4.07
2019-04-11T03:06:43.836Z,4.06
2019-04-11T03:09:13.356Z,4.04
2019-04-11T03:11:45.087Z,4.02
2019-04-11T03:14:17.969Z,4.01
2019-04-11T03:16:56.706Z,3.98
2019-04-11T03:19:29.754Z,3.97
2019-04-11T03:21:47.504Z,3.96
2019-04-11T03:24:17.659Z,3.93
2019-04-11T03:26:47.247Z,3.92
2019-04-11T03:29:17.749Z,3.89
2019-04-11T03:32:34.190Z,3.87
2019-04-11T03:35:17.465Z,3.85
2019-04-11T03:37:21.055Z,3.83
2019-04-11T03:39:41.308Z,3.82
2019-04-11T03:42:04.138Z,3.79
2019-04-11T03:44:28.671Z,3.77
2019-04-11T03:47:14.620Z,3.76
2019-04-11T03:49:32.847Z,3.74
2019-04-11T03:51:55.135Z,3.72
2019-04-11T03:54:25.327Z,3.72
2019-04-11T03:56:54.675Z,3.72
2019-04-11T03:59:23.943Z,3.73
2019-04-11T04:01:54.262Z,3.71
2019-04-11T04:04:26.270Z,3.70
2019-04-11T04:06:57.594Z,3.72
2019-04-11T04:09:28.588Z,3.71
2019-04-11T04:11:59.007Z,3.72
2019-04-11T04:14:53.900Z,3.71
2019-04-11T04:17:43.238Z,3.73
2019-04-11T04:20:21.551Z,3.74
2019-04-11T04:23:07.380Z,3.73
2019-04-11T04:25:37.353Z,3.73
2019-04-11T04:28:09.593Z,3.74
2019-04-11T04:30:40.567Z,3.74
2019-04-11T04:33:10.699Z,3.74
2019-04-11T04:35:42.092Z,3.75
2019-04-11T04:38:13.508Z,3.76
2019-04-11T04:40:58.549Z,3.78
2019-04-11T04:43:14.701Z,3.78
2019-04-11T04:46:07.452Z,3.79
2019-04-11T04:48:20.034Z,3.80
2019-04-11T04:50:48.769Z,3.79
2019-04-11T04:53:18.070Z,3.81
2019-04-11T04:55:50.300Z,3.82
2019-04-11T04:58:20.761Z,3.82
2019-04-11T05:00:53.260Z,3.85
2019-04-11T05:03:22.282Z,3.84
2019-04-11T05:05:52.978Z,3.85
2019-04-11T05:08:22.943Z,3.85
2019-04-11T05:10:53.426Z,3.87
2019-04-11T05:13:23.914Z,3.87
2019-04-11T05:16:04.701Z,3.89
2019-04-11T05:18:23.793Z,3.89
2019-04-11T05:20:52.879Z,3.88
2019-04-11T05:23:21.932Z,3.90
2019-04-11T05:25:51.033Z,3.89
2019-04-11T05:28:21.362Z,3.90
2019-04-11T05:30:51.245Z,3.92
2019-04-11T05:33:21.260Z,3.92
2019-04-11T05:35:50.385Z,3.96
2019-04-11T05:38:19.506Z,3.96
2019-04-11T05:40:48.559Z,3.98
2019-04-11T05:43:17.775Z,3.98
2019-04-11T05:45:50.518Z,3.99
2019-04-11T05:48:35.464Z,4.00
2019-04-11T05:51:04.646Z,3.99
2019-04-11T05:53:36.408Z,4.01
2019-04-11T05:56:04.546Z,4.01
2019-04-11T05:58:34.649Z,4.02
2019-04-11T06:01:31.889Z,4.03
2019-04-11T06:04:05.939Z,4.06
2019-04-11T06:06:41.797Z,4.06
2019-04-11T06:09:16.309Z,4.08
2019-04-11T06:12:05.304Z,4.08
2019-04-11T06:14:39.637Z,4.08
2019-04-11T06:17:11.512Z,4.09
2019-04-11T06:19:58.684Z,4.11
2019-04-11T06:22:27.738Z,4.16
2019-04-11T06:25:16.675Z,4.18
2019-04-11T06:27:51.669Z,4.19
2019-04-11T06:30:54.932Z,4.17
2019-04-11T06:33:30.733Z,4.20
2019-04-11T06:36:21.676Z,4.24
2019-04-11T06:39:09.310Z,4.27
2019-04-11T06:42:04.767Z,4.29
2019-04-11T06:44:46.018Z,4.31
2019-04-11T06:47:45.027Z,4.34
2019-04-11T06:50:42.387Z,4.39
2019-04-11T06:53:13.337Z,4.42
2019-04-11T06:56:00.723Z,4.46
2019-04-11T06:58:35.144Z,4.52
2019-04-11T07:01:09.692Z,4.56
2019-04-11T07:03:44.993Z,4.61
2019-04-11T07:06:19.607Z,4.65
2019-04-11T07:09:03.291Z,4.71
2019-04-11T07:11:42.674Z,4.77
2019-04-11T07:14:31.217Z,4.82
2019-04-11T07:17:18.867Z,4.86
2019-04-11T07:20:16.599Z,4.90
2019-04-11T07:23:03.736Z,4.89
2019-04-11T07:25:47.372Z,4.90
2019-04-11T07:28:23.717Z,4.94
2019-04-11T07:31:10.970Z,4.98
2019-04-11T07:34:06.152Z,5.03
2019-04-11T07:36:53.599Z,5.06
2019-04-11T07:39:35.897Z,5.11
2019-04-11T07:42:34.100Z,5.13
2019-04-11T07:45:04.401Z,5.19
2019-04-11T07:47:48.305Z,5.19
2019-04-11T07:50:19.528Z,5.25
2019-04-11T07:52:51.630Z,5.30
2019-04-11T07:55:23.004Z,5.33
2019-04-11T07:57:56.694Z,5.36
2019-04-11T08:00:47.461Z,5.39
2019-04-11T08:03:32.151Z,5.42
2019-04-11T08:06:09.662Z,5.48
2019-04-11T08:09:09.917Z,5.51
2019-04-11T08:11:44.303Z,5.55
2019-04-11T08:14:20.883Z,5.61
2019-04-11T08:17:07.220Z,5.68
2019-04-11T08:19:55.326Z,5.74
2019-04-11T08:22:35.170Z,5.81
2019-04-11T08:25:17.438Z,5.92
2019-04-11T08:28:00.221Z,5.99
2019-04-11T08:30:26.632Z,6.07
2019-04-11T08:32:58.233Z,6.17
2019-04-11T08:35:52.981Z,6.22
2019-04-11T08:38:32.202Z,6.29
2019-04-11T08:41:27.463Z,6.34
2019-04-11T08:43:56.582Z,6.44
2019-04-11T08:46:31.038Z,6.54
2019-04-11T08:49:03.551Z,6.64
2019-04-11T08:51:33.603Z,6.76
2019-04-11T08:54:19.533Z,6.84
2019-04-11T08:56:49.458Z,6.94
2019-04-11T08:59:44.052Z,7.08
2019-04-11T09:02:18.525Z,7.21
2019-04-11T09:05:11.938Z,7.31
2019-04-11T09:07:44.275Z,7.41
2019-04-11T09:10:33.705Z,7.55
2019-04-11T09:13:09.189Z,7.63
2019-04-11T09:15:57.180Z,7.75
2019-04-11T09:18:26.262Z,7.90
2019-04-11T09:21:12.474Z,8.08
2019-04-11T09:23:41.914Z,8.22
2019-04-11T09:26:28.127Z,8.37
2019-04-11T09:28:59.655Z,8.52
2019-04-11T09:31:49.126Z,8.66
2019-04-11T09:34:35.692Z,8.73
2019-04-11T09:37:22.423Z,8.75
2019-04-11T09:40:19.546Z,8.79
2019-04-11T09:43:07.656Z,8.77
2019-04-11T09:45:54.560Z,8.76
2019-04-11T09:48:31.787Z,8.75
2019-04-11T09:51:29.207Z,8.91
2019-04-11T09:54:05.631Z,9.05
2019-04-11T09:57:04.354Z,9.24
2019-04-11T10:00:01.964Z,9.32
2019-04-11T10:03:01.968Z,9.41
2019-04-11T10:05:59.060Z,9.67
2019-04-11T10:08:39.616Z,9.95
2019-04-11T10:11:43.253Z,10.29
2019-04-11T10:14:15.542Z,10.53
2019-04-11T10:17:02.548Z,10.82
2019-04-11T10:19:44.207Z,11.18
2019-04-11T10:22:27.088Z,11.16
2019-04-11T10:25:28.487Z,11.02
2019-04-11T10:28:29.836Z,10.87
2019-04-11T10:31:10.948Z,10.76
2019-04-11T10:34:06.126Z,10.62
2019-04-11T10:36:57.463Z,10.62
2019-04-11T10:39:54.721Z,10.62
2019-04-11T10:42:26.632Z,10.58
2019-04-11T10:45:27.182Z,10.63
2019-04-11T10:47:58.034Z,10.62
2019-04-11T10:50:56.159Z,10.58
2019-04-11T10:53:26.964Z,10.51
2019-04-11T10:56:34.678Z,10.42
2019-04-11T10:59:05.136Z,10.39
2019-04-11T11:01:58.154Z,10.34
2019-04-11T11:04:36.759Z,10.32
2019-04-11T11:07:10.173Z,10.27
2019-04-11T11:09:44.456Z,10.21
2019-04-11T11:12:33.022Z,10.19
2019-04-11T11:15:11.498Z,10.15
2019-04-11T11:18:42.459Z,10.16
2019-04-11T11:20:59.254Z,10.13
2019-04-11T11:23:45.470Z,10.09
2019-04-11T11:26:22.742Z,9.91
2019-04-11T11:29:00.491Z,9.87
2019-04-11T11:31:50.570Z,9.75
2019-04-11T11:34:49.254Z,9.71
2019-04-11T11:37:45.098Z,9.69
2019-04-11T11:40:32.095Z,9.65
2019-04-11T11:43:10.824Z,9.62
2019-04-11T11:45:51.892Z,9.61
2019-04-11T11:48:49.964Z,9.59
2019-04-11T11:51:37.475Z,9.58
2019-04-11T11:54:13.515Z,9.55
2019-04-11T11:56:44.356Z,9.56
2019-04-11T11:59:32.431Z,9.53
2019-04-11T12:02:04.607Z,9.48
2019-04-11T12:05:07.886Z,9.35
2019-04-11T12:07:41.019Z,9.32
2019-04-11T12:10:39.574Z,9.35
2019-04-11T12:13:47.351Z,9.38
2019-04-11T12:16:34.689Z,9.42
2019-04-11T12:19:22.287Z,9.39
2019-04-11T12:21:53.740Z,9.30
2019-04-11T12:24:27.945Z,9.26
2019-04-11T12:27:04.508Z,9.22
2019-04-11T12:29:53.182Z,9.15
2019-04-11T12:32:25.604Z,9.06
2019-04-11T12:35:04.304Z,9.04
2019-04-11T12:37:37.934Z,9.01
2019-04-11T12:40:25.169Z,8.95
2019-04-11T12:42:54.246Z,8.91
2019-04-11T12:45:40.774Z,8.90
2019-04-11T12:48:11.911Z,8.93
2019-04-11T12:50:59.559Z,8.95
2019-04-11T12:53:28.871Z,8.99
2019-04-11T12:56:28.993Z,9.02
2019-04-11T12:59:10.302Z,9.05
2019-04-11T13:01:56.913Z,9.06
2019-04-11T13:04:37.170Z,9.06
2019-04-11T13:07:31.183Z,9.08
2019-04-11T13:10:06.593Z,9.10
2019-04-11T13:13:00.795Z,9.12
2019-04-11T13:15:36.322Z,9.08
2019-04-11T13:18:23.075Z,9.13
2019-04-11T13:20:59.086Z,9.12
2019-04-11T13:23:46.288Z,9.08
2019-04-11T13:26:33.248Z,9.03
2019-04-11T13:29:24.327Z,9.01
2019-04-11T13:32:24.351Z,8.98
2019-04-11T13:34:55.804Z,9.01
2019-04-11T13:37:43.904Z,9.04
2019-04-11T13:40:35.010Z,9.02
2019-04-11T13:43:21.787Z,9.05
2019-04-11T13:46:08.885Z,8.99
2019-04-11T13:48:56.960Z,9.02
2019-04-11T13:51:39.964Z,9.00
2019-04-11T13:54:26.703Z,8.97
2019-04-11T13:57:08.164Z,8.96
2019-04-11T13:59:55.137Z,8.91
2019-04-11T14:02:36.562Z,8.88
2019-04-11T14:05:10.658Z,8.81
2019-04-11T14:07:37.569Z,8.78
2019-04-11T14:10:08.471Z,8.75
2019-04-11T14:12:38.070Z,8.77
2019-04-11T14:15:10.515Z,8.81
2019-04-11T14:17:50.697Z,8.79
2019-04-11T14:20:41.837Z,8.83
2019-04-11T14:23:34.945Z,8.88
2019-04-11T14:26:23.022Z,8.93
2019-04-11T14:28:59.058Z,8.99
2019-04-11T14:31:44.779Z,9.03
2019-04-11T14:34:32.309Z,9.01
2019-04-11T14:37:33.142Z,9.04
2019-04-11T14:40:01.786Z,9.02
2019-04-11T14:42:52.120Z,9.03
2019-04-11T14:45:33.723Z,8.98
2019-04-11T14:48:19.066Z,8.91
2019-04-11T14:51:19.081Z,8.84
2019-04-11T14:54:04.157Z,8.76
2019-04-11T14:56:33.673Z,8.73
2019-04-11T14:59:24.996Z,8.75
2019-04-11T15:02:01.199Z,8.72
2019-04-11T15:04:47.842Z,8.66
2019-04-11T15:07:16.941Z,8.65
2019-04-11T15:10:07.922Z,8.62
2019-04-11T15:12:36.850Z,8.56
2019-04-11T15:15:25.698Z,8.46
2019-04-11T15:17:57.054Z,8.38
2019-04-11T15:20:54.906Z,8.31
2019-04-11T15:23:47.857Z,8.26
2019-04-11T15:26:36.636Z,8.17
2019-04-11T15:29:09.003Z,8.08
2019-04-11T15:32:17.009Z,7.99
2019-04-11T15:35:10.853Z,7.94
2019-04-11T15:38:04.822Z,7.90
2019-04-11T15:40:37.093Z,7.86
2019-04-11T15:43:31.019Z,7.83
2019-04-11T15:46:05.612Z,7.77
2019-04-11T15:49:00.674Z,7.75
2019-04-11T15:51:58.846Z,7.73
2019-04-11T15:54:46.916Z,7.70
2019-04-11T15:57:34.962Z,7.70
2019-04-11T16:00:30.491Z,7.68
2019-04-11T16:03:10.596Z,7.65
2019-04-11T16:05:57.376Z,7.62
2019-04-11T16:08:31.492Z,7.57
2019-04-11T16:11:22.420Z,7.55
2019-04-11T16:14:12.343Z,7.50
2019-04-11T16:17:00.389Z,7.49
2019-04-11T16:19:48.001Z,7.48
2019-04-11T16:22:39.601Z,7.48
2019-04-11T16:25:11.401Z,7.45
2019-04-11T16:27:59.450Z,7.40
2019-04-11T16:30:28.482Z,7.37
2019-04-11T16:33:10.633Z,7.30
2019-04-11T16:35:46.365Z,7.28
2019-04-11T16:38:18.748Z,7.25
2019-04-11T16:41:05.271Z,7.22
2019-04-11T16:43:34.270Z,7.19
2019-04-11T16:46:24.664Z,7.18
2019-04-11T16:48:55.633Z,7.16
2019-04-11T16:51:30.718Z,7.11
2019-04-11T16:53:53.799Z,7.06
2019-04-11T16:56:22.842Z,7.01
2019-04-11T16:58:51.915Z,6.90
2019-04-11T17:01:23.144Z,6.84
2019-04-11T17:03:54.882Z,6.81
2019-04-11T17:06:35.575Z,6.78
2019-04-11T17:09:09.711Z,6.73
2019-04-11T17:11:38.647Z,6.75
2019-04-11T17:14:07.786Z,6.72
2019-04-11T17:16:36.770Z,6.73
2019-04-11T17:19:06.258Z,6.70
2019-04-11T17:21:43.058Z,6.68
2019-04-11T17:24:06.294Z,6.66
2019-04-11T17:26:35.380Z,6.64
2019-04-11T17:29:04.385Z,6.61
2019-04-11T17:31:33.378Z,6.59
2019-04-11T17:34:03.369Z,6.56
2019-04-11T17:36:33.807Z,6.53
2019-04-11T17:39:06.807Z,6.50
2019-04-11T17:41:34.594Z,6.50
2019-04-11T17:44:03.745Z,6.49
2019-04-11T17:46:32.811Z,6.47
2019-04-11T17:49:01.877Z,6.43
2019-04-11T17:51:34.415Z,6.42
2019-04-11T17:54:01.747Z,6.38
2019-04-11T17:56:30.782Z,6.35
2019-04-11T17:59:00.115Z,6.34
2019-04-11T18:01:29.086Z,6.33
2019-04-11T18:03:58.237Z,6.29
2019-04-11T18:06:27.290Z,6.24
2019-04-11T18:08:56.440Z,6.24
2019-04-11T18:11:26.127Z,6.20
2019-04-11T18:13:55.763Z,6.18
2019-04-11T18:16:24.810Z,6.15
2019-04-11T18:18:53.876Z,6.12
2019-04-11T18:21:22.967Z,6.09
2019-04-11T18:23:52.051Z,6.07
2019-04-11T18:26:22.007Z,6.06
2019-04-11T18:28:51.997Z,6.05
2019-04-11T18:31:24.801Z,6.03
2019-04-11T18:33:52.514Z,6.00
2019-04-11T18:36:21.650Z,5.95
2019-04-11T18:38:50.717Z,5.94
2019-04-11T18:41:19.886Z,5.89
2019-04-11T18:43:50.800Z,5.88
2019-04-11T18:46:19.773Z,5.85
2019-04-11T18:48:48.912Z,5.83
2019-04-11T18:51:18.025Z,5.84
2019-04-11T18:53:47.004Z,5.79
2019-04-11T18:56:16.094Z,5.78
2019-04-11T18:58:45.143Z,5.75
2019-04-11T19:01:17.835Z,5.75
2019-04-11T19:03:45.895Z,5.73
2019-04-11T19:06:14.970Z,5.71
2019-04-11T19:08:44.142Z,5.68
2019-04-11T19:11:15.544Z,5.65
2019-04-11T19:13:46.726Z,5.61
2019-04-11T19:16:16.171Z,5.61
2019-04-11T19:18:47.590Z,5.58
2019-04-11T19:21:20.034Z,5.56
2019-04-11T19:23:47.374Z,5.56
2019-04-11T19:26:16.475Z,5.55
2019-04-11T19:28:45.525Z,5.52
2019-04-11T19:31:14.597Z,5.50
2019-04-11T19:33:43.644Z,5.48
2019-04-11T19:36:12.887Z,5.45
2019-04-11T19:38:43.316Z,5.44
2019-04-11T19:41:16.966Z,5.42
2019-04-11T19:43:43.650Z,5.42
2019-04-11T19:46:12.769Z,5.40
2019-04-11T19:48:41.830Z,5.39
2019-04-11T19:51:11.116Z,5.36
2019-04-11T19:53:40.327Z,5.33
2019-04-11T19:56:17.219Z,5.32
2019-04-11T19:58:46.273Z,5.29
2019-04-11T20:01:15.346Z,5.28
2019-04-11T20:03:44.326Z,5.25
2019-04-11T20:06:13.586Z,5.27
2019-04-11T20:08:42.793Z,5.26
2019-04-11T20:11:11.928Z,5.27
2019-04-11T20:13:40.974Z,5.25
2019-04-11T20:16:12.433Z,5.25
2019-04-11T20:18:50.305Z,5.28
2019-04-11T20:21:11.593Z,5.24
2019-04-11T20:23:41.894Z,5.23
2019-04-11T20:26:11.546Z,5.21
2019-04-11T20:28:40.597Z,5.18
2019-04-11T20:31:09.666Z,5.16
2019-04-11T20:33:38.644Z,5.12
2019-04-11T20:36:08.210Z,5.09
2019-04-11T20:38:38.388Z,5.09
2019-04-11T20:41:07.427Z,5.09
2019-04-11T20:43:36.477Z,5.06
2019-04-11T20:46:05.554Z,5.05
2019-04-11T20:48:35.274Z,5.03
2019-04-11T20:51:04.494Z,5.01
2019-04-11T20:53:36.641Z,4.99
2019-04-11T20:56:04.284Z,4.96
2019-04-11T20:58:33.263Z,4.94
2019-04-11T21:01:02.367Z,4.90
2019-04-11T21:03:31.359Z,4.86
2019-04-11T21:06:01.716Z,4.85
2019-04-11T21:08:33.168Z,4.85
2019-04-11T21:11:04.453Z,4.82
2019-04-11T21:13:32.715Z,4.82
2019-04-11T21:16:01.725Z,4.81
2019-04-11T21:18:30.763Z,4.80
2019-04-11T21:20:59.846Z,4.75
2019-04-11T21:23:29.736Z,4.74
2019-04-11T21:25:59.733Z,4.69
2019-04-11T21:28:30.297Z,4.67
2019-04-11T21:31:00.093Z,4.62
2019-04-11T21:33:34.219Z,4.60
2019-04-11T21:36:01.366Z,4.56
2019-04-11T21:38:31.550Z,4.53
2019-04-11T21:41:00.670Z,4.51
2019-04-11T21:43:29.734Z,4.50
2019-04-11T21:45:58.804Z,4.49
2019-04-11T21:48:27.981Z,4.45
2019-04-11T21:50:56.899Z,4.41
2019-04-11T21:53:35.968Z,4.39
2019-04-11T21:55:56.742Z,4.38
2019-04-11T21:58:25.785Z,4.37
2019-04-11T22:01:01.378Z,4.37
2019-04-11T22:03:31.021Z,4.35
2019-04-11T22:06:00.645Z,4.33
2019-04-11T22:08:31.918Z,4.34
2019-04-11T22:11:03.039Z,4.30
2019-04-11T22:13:31.165Z,4.29
2019-04-11T22:16:00.249Z,4.26
2019-04-11T22:18:29.310Z,4.27
2019-04-11T22:20:58.384Z,4.25
2019-04-11T22:23:27.358Z,4.22
2019-04-11T22:25:56.386Z,4.20
2019-04-11T22:28:25.455Z,4.16
2019-04-11T22:30:55.077Z,4.12
2019-04-11T22:33:29.322Z,4.10
2019-04-11T22:35:59.366Z,4.08
2019-04-11T22:38:30.941Z,4.08
2019-04-11T22:41:02.165Z,4.08
2019-04-11T22:43:30.531Z,4.07
2019-04-11T22:45:59.618Z,4.06
2019-04-11T22:48:28.653Z,4.05
2019-04-11T22:50:57.653Z,4.02
2019-04-11T22:53:26.572Z,4.01
2019-04-11T22:55:55.626Z,3.99
2019-04-11T22:58:24.686Z,3.96
2019-04-11T23:00:53.746Z,3.95
2019-04-11T23:03:47.582Z,3.96
2019-04-11T23:06:17.195Z,3.95
2019-04-11T23:08:49.005Z,3.92
2019-04-11T23:11:17.693Z,3.92
2019-04-11T23:13:46.671Z,3.93
2019-04-11T23:16:15.742Z,3.93
2019-04-11T23:18:44.937Z,3.89
2019-04-11T23:21:15.023Z,3.90
2019-04-11T23:23:44.143Z,3.89
2019-04-11T23:26:13.241Z,3.89
2019-04-11T23:28:45.923Z,3.88
2019-04-11T23:31:13.074Z,3.88
2019-04-11T23:33:42.160Z,3.86
2019-04-11T23:36:11.207Z,3.84
2019-04-11T23:38:40.293Z,3.84
2019-04-11T23:41:09.346Z,3.81
2019-04-11T23:43:38.427Z,3.81
2019-04-11T23:46:07.519Z,3.79
2019-04-11T23:48:36.409Z,3.77
2019-04-11T23:51:05.458Z,3.78
2019-04-11T23:53:34.568Z,3.77
2019-04-11T23:56:03.625Z,3.78
2019-04-11T23:58:32.710Z,3.79
